createdAt,value
2022-07-28T00:00:02.913Z,44.30
2022-07-28T00:02:29.777Z,44.50
2022-07-28T00:04:56.617Z,44.70
2022-07-28T00:07:24.017Z,44.80
2022-07-28T00:09:50.875Z,44.60
2022-07-28T00:12:17.848Z,44.60
2022-07-28T00:14:44.595Z,44.40
2022-07-28T00:17:11.365Z,44.50
2022-07-28T00:19:38.104Z,44.70
2022-07-28T00:22:05.134Z,44.90
2022-07-28T00:24:31.900Z,45.10
2022-07-28T00:26:58.852Z,44.90
2022-07-28T00:29:25.810Z,44.90
2022-07-28T00:32:12.545Z,45.00
2022-07-28T00:34:39.690Z,45.20
2022-07-28T00:37:09.326Z,45.30
2022-07-28T00:39:41.468Z,46.10
2022-07-28T00:42:08.518Z,46.20
2022-07-28T00:44:35.261Z,46.10
2022-07-28T00:47:02.030Z,46.00
2022-07-28T00:49:28.874Z,46.00
2022-07-28T00:51:55.718Z,46.50
2022-07-28T00:54:22.448Z,46.40
2022-07-28T00:56:49.207Z,46.50
2022-07-28T00:59:16.142Z,46.60
2022-07-28T01:01:42.929Z,46.60
2022-07-28T01:04:09.833Z,46.90
2022-07-28T01:06:58.431Z,47.00
2022-07-28T01:09:42.265Z,47.60
2022-07-28T01:12:35.910Z,47.70
2022-07-28T01:15:11.621Z,48.30
2022-07-28T01:17:52.350Z,48.90
2022-07-28T01:20:28.877Z,49.40
2022-07-28T01:23:19.975Z,50.00
2022-07-28T01:26:21.768Z,50.10
2022-07-28T01:29:14.314Z,50.10
2022-07-28T01:31:48.335Z,50.30
2022-07-28T01:34:18.889Z,50.60
2022-07-28T01:36:53.295Z,51.00
2022-07-28T01:39:22.028Z,50.90
2022-07-28T01:41:52.158Z,51.00
2022-07-28T01:44:23.096Z,51.40
2022-07-28T01:46:54.459Z,51.40
2022-07-28T01:49:22.883Z,51.50
2022-07-28T01:51:51.719Z,51.60
2022-07-28T01:54:19.941Z,52.00
2022-07-28T01:56:48.684Z,52.10
2022-07-28T01:59:16.968Z,52.20
2022-07-28T02:01:44.582Z,52.20
2022-07-28T02:04:14.177Z,52.30
2022-07-28T02:06:43.681Z,52.80
2022-07-28T02:09:12.093Z,53.10
2022-07-28T02:11:40.351Z,54.20
2022-07-28T02:14:18.136Z,53.70
2022-07-28T02:16:49.766Z,53.40
2022-07-28T02:19:18.339Z,53.60
2022-07-28T02:21:47.826Z,53.90
2022-07-28T02:24:17.512Z,53.90
2022-07-28T02:26:49.580Z,53.40
2022-07-28T02:29:47.984Z,53.70
2022-07-28T02:32:23.963Z,54.60
2022-07-28T02:35:05.137Z,54.60
2022-07-28T02:37:36.738Z,54.90
2022-07-28T02:40:06.004Z,54.60
2022-07-28T02:42:35.611Z,54.40
2022-07-28T02:45:05.634Z,54.50
2022-07-28T02:47:37.750Z,54.70
2022-07-28T02:50:05.971Z,55.10
2022-07-28T02:52:34.521Z,56.20
2022-07-28T02:55:02.640Z,55.00
2022-07-28T02:57:30.565Z,54.80
2022-07-28T02:59:58.119Z,55.70
2022-07-28T03:02:25.292Z,56.00
2022-07-28T03:04:59.195Z,56.20
2022-07-28T03:07:32.881Z,56.10
2022-07-28T03:10:00.499Z,55.90
2022-07-28T03:12:27.436Z,56.50
2022-07-28T03:14:54.606Z,55.80
2022-07-28T03:17:21.668Z,55.10
2022-07-28T03:19:48.660Z,55.50
2022-07-28T03:22:16.017Z,55.30
2022-07-28T03:24:49.081Z,55.70
2022-07-28T03:27:32.157Z,55.60
2022-07-28T03:30:04.049Z,56.10
2022-07-28T03:32:34.268Z,57.10
2022-07-28T03:35:01.602Z,57.20
2022-07-28T03:37:38.823Z,57.60
2022-07-28T03:40:09.337Z,58.50
2022-07-28T03:42:37.795Z,58.60
2022-07-28T03:45:05.987Z,59.10
2022-07-28T03:47:32.827Z,59.30
2022-07-28T03:49:59.772Z,59.50
2022-07-28T03:52:26.667Z,59.50
2022-07-28T03:54:53.625Z,59.40
2022-07-28T03:57:20.402Z,59.90
2022-07-28T03:59:47.140Z,60.00
2022-07-28T04:02:13.974Z,60.50
2022-07-28T04:04:40.729Z,60.50
2022-07-28T04:07:07.477Z,60.30
2022-07-28T04:09:34.782Z,60.20
2022-07-28T04:12:01.570Z,59.90
2022-07-28T04:14:28.287Z,59.90
2022-07-28T04:16:55.057Z,60.00
2022-07-28T04:19:21.852Z,59.50
2022-07-28T04:21:48.583Z,58.70
2022-07-28T04:24:15.633Z,58.70
2022-07-28T04:26:44.014Z,58.60
2022-07-28T04:29:11.041Z,59.10
2022-07-28T04:31:37.925Z,59.40
2022-07-28T04:34:04.664Z,59.20
2022-07-28T04:36:31.534Z,58.60
2022-07-28T04:38:59.393Z,58.70
2022-07-28T04:41:27.210Z,58.80
2022-07-28T04:43:53.989Z,59.60
2022-07-28T04:46:20.831Z,60.10
2022-07-28T04:48:47.684Z,60.20
2022-07-28T04:51:14.432Z,60.50
2022-07-28T04:53:41.453Z,61.40
2022-07-28T04:56:08.203Z,61.30
2022-07-28T04:58:35.150Z,60.60
2022-07-28T05:01:02.334Z,61.70
2022-07-28T05:03:34.072Z,60.90
2022-07-28T05:06:02.941Z,60.10
2022-07-28T05:08:29.628Z,59.10
2022-07-28T05:10:56.737Z,60.00
2022-07-28T05:13:24.091Z,60.10
2022-07-28T05:15:51.322Z,60.00
2022-07-28T05:18:18.076Z,59.90
2022-07-28T05:20:44.820Z,59.80
2022-07-28T05:23:12.782Z,59.90
2022-07-28T05:25:39.584Z,59.70
2022-07-28T05:28:06.458Z,59.10
2022-07-28T05:30:33.198Z,58.90
2022-07-28T05:33:01.789Z,58.50
2022-07-28T05:35:28.818Z,57.70
2022-07-28T05:37:55.713Z,56.30
2022-07-28T05:40:22.486Z,55.40
2022-07-28T05:42:49.267Z,55.70
2022-07-28T05:45:17.689Z,54.70
2022-07-28T05:47:49.269Z,55.00
2022-07-28T05:50:17.801Z,54.70
2022-07-28T05:52:45.334Z,54.40
2022-07-28T05:55:12.783Z,52.50
2022-07-28T05:57:40.055Z,51.80
2022-07-28T06:00:09.281Z,51.20
2022-07-28T06:02:36.292Z,50.40
2022-07-28T06:05:03.209Z,49.70
2022-07-28T06:07:43.215Z,49.10
2022-07-28T06:10:13.125Z,48.20
2022-07-28T06:12:51.140Z,48.10
2022-07-28T06:15:23.395Z,47.40
2022-07-28T06:17:55.360Z,47.50
2022-07-28T06:20:23.749Z,46.80
2022-07-28T06:22:53.404Z,46.20
2022-07-28T06:25:22.387Z,45.60
2022-07-28T06:27:51.989Z,45.50
2022-07-28T06:30:19.669Z,45.30
2022-07-28T06:32:47.805Z,45.50
2022-07-28T06:35:16.677Z,46.10
2022-07-28T06:37:44.332Z,45.20
2022-07-28T06:40:11.993Z,45.80
2022-07-28T06:42:39.152Z,44.70
2022-07-28T06:45:07.003Z,43.80
2022-07-28T06:47:33.836Z,42.90
2022-07-28T06:50:00.655Z,43.00
2022-07-28T06:52:27.389Z,42.00
2022-07-28T06:54:58.277Z,42.20
2022-07-28T06:57:28.059Z,42.70
2022-07-28T07:00:03.245Z,41.30
2022-07-28T07:02:30.074Z,40.90
2022-07-28T07:04:56.848Z,40.60
2022-07-28T07:07:23.609Z,40.00
2022-07-28T07:09:51.501Z,38.80
2022-07-28T07:12:18.260Z,38.80
2022-07-28T07:14:45.045Z,37.60
2022-07-28T07:17:11.760Z,37.10
2022-07-28T07:19:38.860Z,38.30
2022-07-28T07:22:05.676Z,38.60
2022-07-28T07:24:32.597Z,37.80
2022-07-28T07:26:59.365Z,37.90
2022-07-28T07:29:26.184Z,37.60
2022-07-28T07:31:58.651Z,36.50
2022-07-28T07:34:25.565Z,35.40
2022-07-28T07:36:52.387Z,36.70
2022-07-28T07:39:19.129Z,37.00
2022-07-28T07:41:45.877Z,37.20
2022-07-28T07:44:12.896Z,37.70
2022-07-28T07:46:39.996Z,37.90
2022-07-28T07:49:06.891Z,37.40
2022-07-28T07:51:34.390Z,38.00
2022-07-28T07:54:01.113Z,37.50
2022-07-28T07:56:27.879Z,34.60
2022-07-28T07:58:57.069Z,34.00
2022-07-28T08:01:24.303Z,33.60
2022-07-28T08:03:51.459Z,34.10
2022-07-28T08:06:26.354Z,34.50
2022-07-28T08:08:54.653Z,34.20
2022-07-28T08:11:21.450Z,33.30
2022-07-28T08:13:48.239Z,31.60
2022-07-28T08:16:15.048Z,31.00
2022-07-28T08:18:41.833Z,31.60
2022-07-28T08:21:08.589Z,30.90
2022-07-28T08:23:35.323Z,31.30
2022-07-28T08:26:04.172Z,32.60
2022-07-28T08:28:30.921Z,33.10
2022-07-28T08:30:57.691Z,32.00
2022-07-28T08:33:24.494Z,32.20
2022-07-28T08:35:51.354Z,31.00
2022-07-28T08:38:18.235Z,31.10
2022-07-28T08:40:48.363Z,31.30
2022-07-28T08:43:25.760Z,29.70
2022-07-28T08:45:58.103Z,28.70
2022-07-28T08:48:31.216Z,29.00
2022-07-28T08:51:01.955Z,29.40
2022-07-28T08:53:31.063Z,29.10
2022-07-28T08:56:15.717Z,29.40
2022-07-28T08:58:43.178Z,28.90
2022-07-28T09:01:11.051Z,28.90
2022-07-28T09:03:39.344Z,28.20
2022-07-28T09:06:06.369Z,27.40
2022-07-28T09:08:33.555Z,29.10
2022-07-28T09:11:00.355Z,29.70
2022-07-28T09:13:27.252Z,29.10
2022-07-28T09:15:54.241Z,29.10
2022-07-28T09:18:21.664Z,29.50
2022-07-28T09:20:48.556Z,29.20
2022-07-28T09:23:42.515Z,27.80
2022-07-28T09:26:12.173Z,27.90
2022-07-28T09:28:59.243Z,27.90
2022-07-28T09:31:28.611Z,28.40
2022-07-28T09:34:02.319Z,29.10
2022-07-28T09:36:30.608Z,28.60
2022-07-28T09:38:57.598Z,27.80
2022-07-28T09:41:24.643Z,27.30
2022-07-28T09:43:55.289Z,28.00
2022-07-28T09:46:25.507Z,26.80
2022-07-28T09:48:54.276Z,25.60
2022-07-28T09:51:27.086Z,25.70
2022-07-28T09:54:06.578Z,26.50
2022-07-28T09:56:33.846Z,26.20
2022-07-28T09:59:02.814Z,25.60
2022-07-28T10:01:36.590Z,26.20
2022-07-28T10:04:04.438Z,26.40
2022-07-28T10:06:34.085Z,26.90
2022-07-28T10:09:03.043Z,27.10
2022-07-28T10:11:30.429Z,26.80
2022-07-28T10:14:05.558Z,27.30
2022-07-28T10:16:42.357Z,26.30
2022-07-28T10:19:09.251Z,24.90
2022-07-28T10:21:47.124Z,24.70
2022-07-28T10:24:20.883Z,25.50
2022-07-28T10:26:48.666Z,25.50
2022-07-28T10:29:21.579Z,25.20
2022-07-28T10:31:53.855Z,25.20
2022-07-28T10:34:30.154Z,23.90
2022-07-28T10:36:59.793Z,24.40
2022-07-28T10:39:32.482Z,23.10
2022-07-28T10:42:00.493Z,22.50
2022-07-28T10:44:28.247Z,22.90
2022-07-28T10:46:55.900Z,23.70
2022-07-28T10:49:27.624Z,23.30
2022-07-28T10:52:04.829Z,24.00
2022-07-28T10:55:07.742Z,24.30
2022-07-28T10:57:38.503Z,24.60
2022-07-28T11:00:24.595Z,25.40
2022-07-28T11:03:02.108Z,24.90
2022-07-28T11:05:41.409Z,25.30
2022-07-28T11:08:17.170Z,25.90
2022-07-28T11:10:51.639Z,23.10
2022-07-28T11:13:44.701Z,24.40
2022-07-28T11:16:13.286Z,24.60
2022-07-28T11:19:38.012Z,24.70
2022-07-28T11:22:18.661Z,25.00
2022-07-28T11:24:57.994Z,23.60
2022-07-28T11:27:40.196Z,23.70
2022-07-28T11:30:35.970Z,23.80
2022-07-28T11:33:04.720Z,23.00
2022-07-28T11:35:41.389Z,24.00
2022-07-28T11:38:10.314Z,23.90
2022-07-28T11:40:44.437Z,22.90
2022-07-28T11:43:36.130Z,23.10
2022-07-28T11:46:09.667Z,23.30
2022-07-28T11:48:38.762Z,22.00
2022-07-28T11:51:05.592Z,22.40
2022-07-28T11:53:50.250Z,21.70
2022-07-28T11:56:24.379Z,22.30
2022-07-28T11:59:05.766Z,22.70
2022-07-28T12:01:36.910Z,21.10
2022-07-28T12:04:17.752Z,21.30
2022-07-28T12:06:51.355Z,21.60
2022-07-28T12:09:21.858Z,21.50
2022-07-28T12:11:54.195Z,22.80
2022-07-28T12:14:22.693Z,23.60
2022-07-28T12:16:54.571Z,23.20
2022-07-28T12:19:22.270Z,22.50
2022-07-28T12:21:51.834Z,23.50
2022-07-28T12:24:45.562Z,23.70
2022-07-28T12:27:15.147Z,23.30
2022-07-28T12:29:42.399Z,22.50
2022-07-28T12:32:10.190Z,22.70
2022-07-28T12:34:39.769Z,22.20
2022-07-28T12:37:12.427Z,21.90
2022-07-28T12:39:42.321Z,22.20
2022-07-28T12:42:11.569Z,22.90
2022-07-28T12:44:40.998Z,22.70
2022-07-28T12:47:10.835Z,22.90
2022-07-28T12:49:39.392Z,22.70
2022-07-28T12:52:22.097Z,22.50
2022-07-28T12:54:54.467Z,22.50
2022-07-28T12:57:51.042Z,22.30
2022-07-28T13:00:23.861Z,22.50
2022-07-28T13:02:56.062Z,22.00
2022-07-28T13:05:55.556Z,21.40
2022-07-28T13:08:27.192Z,21.20
2022-07-28T13:10:57.531Z,20.90
2022-07-28T13:13:26.744Z,22.30
2022-07-28T13:16:14.233Z,21.70
2022-07-28T13:18:42.907Z,21.20
2022-07-28T13:21:10.978Z,20.40
2022-07-28T13:23:38.226Z,20.50
2022-07-28T13:26:07.481Z,20.70
2022-07-28T13:28:34.927Z,20.80
2022-07-28T13:31:01.835Z,21.00
2022-07-28T13:33:28.764Z,20.90
2022-07-28T13:35:55.786Z,20.60
2022-07-28T13:38:22.600Z,19.90
2022-07-28T13:40:49.398Z,20.10
2022-07-28T13:43:16.160Z,20.50
2022-07-28T13:45:43.031Z,20.90
2022-07-28T13:48:09.818Z,20.90
2022-07-28T13:50:36.873Z,21.50
2022-07-28T13:53:03.708Z,22.20
2022-07-28T13:55:30.530Z,22.10
2022-07-28T13:57:57.320Z,21.80
2022-07-28T14:00:24.288Z,21.90
2022-07-28T14:02:51.530Z,22.10
2022-07-28T14:05:18.596Z,22.30
2022-07-28T14:07:48.146Z,22.10
2022-07-28T14:10:19.385Z,21.70
2022-07-28T14:12:46.708Z,21.20
2022-07-28T14:15:14.288Z,21.30
2022-07-28T14:17:43.475Z,21.30
2022-07-28T14:20:13.387Z,21.30
2022-07-28T14:22:40.533Z,21.30
2022-07-28T14:25:07.648Z,21.10
2022-07-28T14:27:34.437Z,21.20
2022-07-28T14:30:03.615Z,21.70
2022-07-28T14:32:32.952Z,21.90
2022-07-28T14:34:59.882Z,21.50
2022-07-28T14:37:29.267Z,21.60
2022-07-28T14:39:56.236Z,21.10
2022-07-28T14:42:23.013Z,20.70
2022-07-28T14:44:49.791Z,20.60
2022-07-28T14:47:17.660Z,20.50
2022-07-28T14:49:57.290Z,20.40
2022-07-28T14:52:29.504Z,20.20
2022-07-28T14:54:57.474Z,19.40
2022-07-28T14:57:48.724Z,19.60
2022-07-28T15:00:14.608Z,20.00
2022-07-28T15:02:41.753Z,20.30
2022-07-28T15:05:10.369Z,20.60
2022-07-28T15:07:37.183Z,20.60
2022-07-28T15:10:05.027Z,20.30
2022-07-28T15:12:31.786Z,20.50
2022-07-28T15:14:58.497Z,20.20
2022-07-28T15:17:25.257Z,20.20
2022-07-28T15:19:52.024Z,20.50
2022-07-28T15:22:18.808Z,20.50
2022-07-28T15:24:46.056Z,20.30
2022-07-28T15:27:12.839Z,20.30
2022-07-28T15:29:39.603Z,20.50
2022-07-28T15:32:10.721Z,20.90
2022-07-28T15:34:39.876Z,20.70
2022-07-28T15:37:07.064Z,21.00
2022-07-28T15:39:34.185Z,20.60
2022-07-28T15:42:01.642Z,19.70
2022-07-28T15:44:29.904Z,20.00
2022-07-28T15:46:56.808Z,20.50
2022-07-28T15:49:23.794Z,21.00
2022-07-28T15:51:50.614Z,20.20
2022-07-28T15:54:18.074Z,20.20
2022-07-28T15:56:45.241Z,20.30
2022-07-28T15:59:12.042Z,20.70
2022-07-28T16:01:45.233Z,20.60
2022-07-28T16:04:12.831Z,20.00
2022-07-28T16:06:58.783Z,20.00
2022-07-28T16:09:25.523Z,20.30
2022-07-28T16:12:15.559Z,20.80
2022-07-28T16:14:42.695Z,20.70
2022-07-28T16:17:10.456Z,20.10
2022-07-28T16:19:48.922Z,20.40
2022-07-28T16:22:18.292Z,20.80
2022-07-28T16:24:45.815Z,20.20
2022-07-28T16:27:12.632Z,20.30
2022-07-28T16:29:39.356Z,20.30
2022-07-28T16:32:06.269Z,20.40
2022-07-28T16:34:32.990Z,20.30
2022-07-28T16:36:59.795Z,20.90
2022-07-28T16:39:26.518Z,20.50
2022-07-28T16:41:53.358Z,20.80
2022-07-28T16:44:20.539Z,20.70
2022-07-28T16:46:47.748Z,20.80
2022-07-28T16:49:16.181Z,20.70
2022-07-28T16:51:43.158Z,20.70
2022-07-28T16:54:09.918Z,21.00
2022-07-28T16:56:36.685Z,21.00
2022-07-28T16:59:03.457Z,21.20
2022-07-28T17:01:30.234Z,21.50
2022-07-28T17:03:57.008Z,21.60
2022-07-28T17:06:23.823Z,21.60
2022-07-28T17:08:50.561Z,21.80
2022-07-28T17:11:17.548Z,21.90
2022-07-28T17:13:45.593Z,22.50
2022-07-28T17:16:13.186Z,22.00
2022-07-28T17:18:40.529Z,22.20
2022-07-28T17:21:07.439Z,22.20
2022-07-28T17:23:36.433Z,22.30
2022-07-28T17:28:53.394Z,22.20
2022-07-28T17:31:20.210Z,22.60
2022-07-28T17:33:47.150Z,22.50
2022-07-28T17:36:13.950Z,22.60
2022-07-28T17:38:40.740Z,22.80
2022-07-28T17:41:09.175Z,22.90
2022-07-28T17:43:38.270Z,23.00
2022-07-28T17:46:10.467Z,23.00
2022-07-28T17:48:38.884Z,23.30
2022-07-28T17:51:05.935Z,23.40
2022-07-28T17:53:33.630Z,23.50
2022-07-28T17:56:06.926Z,23.50
2022-07-28T17:58:35.730Z,23.80
2022-07-28T18:01:11.275Z,23.90
2022-07-28T18:03:57.513Z,23.90
2022-07-28T18:06:32.568Z,24.00
2022-07-28T18:09:05.484Z,24.10
2022-07-28T18:11:57.023Z,24.20
2022-07-28T18:14:29.154Z,24.20
2022-07-28T18:16:56.711Z,24.30
2022-07-28T18:19:24.349Z,24.30
2022-07-28T18:21:51.148Z,24.50
2022-07-28T18:24:18.579Z,24.70
2022-07-28T18:26:45.685Z,24.60
2022-07-28T18:29:12.450Z,24.50
2022-07-28T18:31:45.522Z,24.60
2022-07-28T18:34:13.664Z,24.70
2022-07-28T18:36:40.711Z,24.60
2022-07-28T18:39:08.562Z,24.60
2022-07-28T18:41:46.264Z,24.70
2022-07-28T18:44:15.509Z,25.00
2022-07-28T18:46:42.614Z,25.00
2022-07-28T18:49:09.517Z,25.20
2022-07-28T18:51:36.814Z,25.30
2022-07-28T18:54:03.768Z,25.20
2022-07-28T18:56:31.587Z,25.30
2022-07-28T18:58:58.291Z,25.30
2022-07-28T19:01:25.129Z,25.40
2022-07-28T19:03:51.913Z,25.70
2022-07-28T19:06:18.823Z,25.90
2022-07-28T19:08:45.624Z,25.90
2022-07-28T19:11:15.109Z,26.00
2022-07-28T19:13:44.376Z,26.00
2022-07-28T19:16:11.167Z,26.10
2022-07-28T19:18:38.023Z,26.20
2022-07-28T19:21:04.925Z,26.30
2022-07-28T19:23:31.797Z,26.50
2022-07-28T19:25:58.544Z,26.60
2022-07-28T19:28:25.271Z,26.70
2022-07-28T19:30:52.970Z,26.70
2022-07-28T19:33:21.774Z,26.70
2022-07-28T19:35:51.609Z,26.80
2022-07-28T19:38:18.433Z,26.80
2022-07-28T19:40:45.362Z,27.60
2022-07-28T19:43:12.127Z,27.20
2022-07-28T19:45:38.926Z,27.30
2022-07-28T19:48:07.360Z,27.20
2022-07-28T19:50:36.103Z,27.20
2022-07-28T19:53:03.230Z,27.10
2022-07-28T19:55:35.053Z,27.40
2022-07-28T19:58:03.488Z,27.40
2022-07-28T20:00:30.317Z,27.20
2022-07-28T20:02:57.230Z,27.30
2022-07-28T20:05:24.289Z,27.40
2022-07-28T20:07:51.058Z,27.30
2022-07-28T20:10:17.855Z,27.50
2022-07-28T20:12:45.457Z,27.60
2022-07-28T20:15:12.541Z,27.50
2022-07-28T20:17:40.040Z,27.50
2022-07-28T20:20:09.477Z,27.70
2022-07-28T20:22:37.453Z,27.80
2022-07-28T20:25:05.347Z,27.90
2022-07-28T20:27:40.864Z,28.10
2022-07-28T20:30:12.410Z,28.10
2022-07-28T20:32:40.489Z,28.30
2022-07-28T20:35:09.805Z,28.40
2022-07-28T20:37:37.911Z,28.30
2022-07-28T20:40:06.671Z,28.30
2022-07-28T20:42:33.568Z,28.40
2022-07-28T20:45:00.311Z,28.40
2022-07-28T20:47:27.982Z,28.40
2022-07-28T20:49:55.422Z,28.60
2022-07-28T20:52:23.469Z,28.90
2022-07-28T20:54:54.381Z,29.10
2022-07-28T20:57:22.450Z,29.10
2022-07-28T20:59:51.267Z,29.30
2022-07-28T21:02:21.966Z,29.50
2022-07-28T21:04:50.351Z,29.50
2022-07-28T21:08:00.256Z,29.50
2022-07-28T21:10:06.737Z,29.60
2022-07-28T21:12:34.504Z,29.70
2022-07-28T21:15:01.331Z,29.70
2022-07-28T21:17:28.166Z,30.00
2022-07-28T21:19:54.909Z,30.20
2022-07-28T21:22:22.745Z,30.30
2022-07-28T21:24:54.931Z,30.70
2022-07-28T21:27:22.837Z,31.90
2022-07-28T21:32:17.388Z,33.10
2022-07-28T21:34:45.209Z,33.70
2022-07-28T21:37:13.091Z,34.30
2022-07-28T21:39:40.322Z,34.70
2022-07-28T21:42:08.840Z,35.20
2022-07-28T21:44:37.074Z,37.50
2022-07-28T21:47:04.186Z,39.90
2022-07-28T21:49:31.376Z,42.10
2022-07-28T21:51:58.527Z,46.30
2022-07-28T21:54:25.361Z,49.90
2022-07-28T21:56:52.155Z,55.30
2022-07-28T21:59:18.898Z,59.20
2022-07-28T22:01:45.818Z,65.00
2022-07-28T22:04:12.857Z,71.90
2022-07-28T22:06:39.895Z,73.60
2022-07-28T22:09:06.673Z,76.50
2022-07-28T22:11:33.580Z,77.90
2022-07-28T22:14:01.087Z,80.10
2022-07-28T22:16:27.899Z,80.50
2022-07-28T22:18:54.724Z,79.30
2022-07-28T22:21:21.494Z,83.40
2022-07-28T22:23:48.228Z,79.50
2022-07-28T22:26:14.990Z,83.30
2022-07-28T22:28:41.730Z,83.80
2022-07-28T22:31:10.121Z,88.70
2022-07-28T22:33:40.300Z,88.80
2022-07-28T22:36:08.882Z,89.40
2022-07-28T22:38:36.048Z,89.40
2022-07-28T22:41:02.898Z,90.30
2022-07-28T22:43:32.935Z,91.00
2022-07-28T22:45:59.773Z,90.60
2022-07-28T22:48:26.556Z,91.20
2022-07-28T22:50:53.364Z,91.80
2022-07-28T22:53:20.103Z,90.30
2022-07-28T22:55:47.334Z,89.50
2022-07-28T22:58:14.084Z,90.70
2022-07-28T23:00:40.869Z,91.70
2022-07-28T23:03:07.742Z,93.00
2022-07-28T23:05:39.033Z,91.70
2022-07-28T23:08:06.307Z,90.80
2022-07-28T23:10:33.291Z,91.80
2022-07-28T23:13:00.282Z,92.10
2022-07-28T23:15:41.254Z,92.60
2022-07-28T23:18:16.080Z,92.70
2022-07-28T23:20:43.870Z,93.50
2022-07-28T23:23:11.485Z,91.60
2022-07-28T23:25:42.551Z,90.40
2022-07-28T23:28:10.319Z,90.70
2022-07-28T23:30:37.616Z,92.20
2022-07-28T23:33:05.364Z,92.90
2022-07-28T23:35:32.194Z,91.70
2022-07-28T23:37:58.929Z,91.30
2022-07-28T23:40:25.771Z,91.90
2022-07-28T23:42:52.508Z,92.70
2022-07-28T23:45:19.258Z,93.50
2022-07-28T23:47:46.005Z,93.10
2022-07-28T23:50:12.753Z,92.90
2022-07-28T23:52:39.491Z,92.40
2022-07-28T23:55:06.741Z,92.20
2022-07-28T23:57:33.480Z,92.80
